sensor_id;sensor_type;location;lat;lon;timestamp;P1;durP1;ratioP1;P2;durP2;ratioP2
36457;SDS011;22480;50.546;12.292;2024-03-23T00:51:47;13.82;;;10.07;;
36457;SDS011;22480;50.546;12.292;2024-03-23T00:54:13;13.15;;;8.98;;
36457;SDS011;22480;50.546;12.292;2024-03-23T00:56:38;12.45;;;8.88;;
36457;SDS011;22480;50.546;12.292;2024-03-23T00:59:04;12.30;;;9.07;;
36457;SDS011;22480;50.546;12.292;2024-03-23T01:01:30;11.57;;;9.20;;
36457;SDS011;22480;50.546;12.292;2024-03-23T01:03:55;15.45;;;9.73;;
36457;SDS011;22480;50.546;12.292;2024-03-23T01:06:21;12.57;;;9.43;;
36457;SDS011;22480;50.546;12.292;2024-03-23T01:08:47;16.85;;;10.20;;
36457;SDS011;22480;50.546;12.292;2024-03-23T01:11:12;11.38;;;9.98;;
36457;SDS011;22480;50.546;12.292;2024-03-23T01:13:38;16.88;;;11.57;;
36457;SDS011;22480;50.546;12.292;2024-03-23T01:16:04;13.52;;;10.20;;
36457;SDS011;22480;50.546;12.292;2024-03-23T01:18:30;14.60;;;10.13;;
36457;SDS011;22480;50.546;12.292;2024-03-23T01:20:55;13.88;;;10.40;;
36457;SDS011;22480;50.546;12.292;2024-03-23T01:23:21;16.45;;;10.32;;
36457;SDS011;22480;50.546;12.292;2024-03-23T01:25:53;18.95;;;11.30;;
36457;SDS011;22480;50.546;12.292;2024-03-23T01:28:22;17.88;;;11.40;;
36457;SDS011;22480;50.546;12.292;2024-03-23T01:30:48;15.70;;;12.00;;
36457;SDS011;22480;50.546;12.292;2024-03-23T01:33:15;16.45;;;12.20;;
36457;SDS011;22480;50.546;12.292;2024-03-23T01:35:40;16.45;;;10.88;;
36457;SDS011;22480;50.546;12.292;2024-03-23T01:38:06;14.02;;;10.52;;
36457;SDS011;22480;50.546;12.292;2024-03-23T01:40:32;15.70;;;12.25;;
36457;SDS011;22480;50.546;12.292;2024-03-23T01:42:58;17.17;;;11.60;;
36457;SDS011;22480;50.546;12.292;2024-03-23T01:45:28;21.48;;;11.65;;
36457;SDS011;22480;50.546;12.292;2024-03-23T01:47:55;15.65;;;11.45;;
36457;SDS011;22480;50.546;12.292;2024-03-23T01:50:20;16.50;;;11.57;;
36457;SDS011;22480;50.546;12.292;2024-03-23T01:52:47;15.40;;;11.25;;
36457;SDS011;22480;50.546;12.292;2024-03-23T01:55:13;15.93;;;10.27;;
36457;SDS011;22480;50.546;12.292;2024-03-23T01:57:39;12.82;;;9.68;;
36457;SDS011;22480;50.546;12.292;2024-03-23T02:00:05;13.90;;;9.85;;
36457;SDS011;22480;50.546;12.292;2024-03-23T02:02:43;12.32;;;9.55;;
36457;SDS011;22480;50.546;12.292;2024-03-23T02:05:10;14.20;;;10.43;;
36457;SDS011;22480;50.546;12.292;2024-03-23T02:07:37;11.30;;;9.20;;
36457;SDS011;22480;50.546;12.292;2024-03-23T02:10:04;10.80;;;8.48;;
36457;SDS011;22480;50.546;12.292;2024-03-23T02:12:31;13.30;;;9.10;;
36457;SDS011;22480;50.546;12.292;2024-03-23T02:14:57;12.77;;;8.68;;
36457;SDS011;22480;50.546;12.292;2024-03-23T02:17:23;12.50;;;9.07;;
36457;SDS011;22480;50.546;12.292;2024-03-23T02:19:48;12.90;;;9.32;;
36457;SDS011;22480;50.546;12.292;2024-03-23T02:22:15;13.10;;;9.73;;
36457;SDS011;22480;50.546;12.292;2024-03-23T02:24:41;12.40;;;9.65;;
36457;SDS011;22480;50.546;12.292;2024-03-23T02:27:07;13.30;;;9.52;;
36457;SDS011;22480;50.546;12.292;2024-03-23T02:29:33;13.43;;;9.32;;
36457;SDS011;22480;50.546;12.292;2024-03-23T02:31:59;16.40;;;9.63;;
36457;SDS011;22480;50.546;12.292;2024-03-23T02:34:26;13.35;;;9.93;;
36457;SDS011;22480;50.546;12.292;2024-03-23T02:36:52;15.43;;;10.07;;
36457;SDS011;22480;50.546;12.292;2024-03-23T02:39:17;11.80;;;9.45;;
36457;SDS011;22480;50.546;12.292;2024-03-23T02:41:43;14.43;;;9.70;;
36457;SDS011;22480;50.546;12.292;2024-03-23T02:44:09;13.88;;;11.02;;
36457;SDS011;22480;50.546;12.292;2024-03-23T02:46:37;20.02;;;10.80;;
36457;SDS011;22480;50.546;12.292;2024-03-23T02:49:03;16.42;;;11.88;;
36457;SDS011;22480;50.546;12.292;2024-03-23T02:51:29;15.95;;;11.50;;
36457;SDS011;22480;50.546;12.292;2024-03-23T02:53:55;15.40;;;10.70;;
36457;SDS011;22480;50.546;12.292;2024-03-23T02:56:21;17.98;;;12.10;;
36457;SDS011;22480;50.546;12.292;2024-03-23T02:58:47;19.15;;;12.73;;
36457;SDS011;22480;50.546;12.292;2024-03-23T03:01:13;17.17;;;12.80;;
36457;SDS011;22480;50.546;12.292;2024-03-23T03:03:39;16.98;;;12.65;;
36457;SDS011;22480;50.546;12.292;2024-03-23T03:06:04;16.83;;;12.63;;
36457;SDS011;22480;50.546;12.292;2024-03-23T03:08:30;15.95;;;12.30;;
36457;SDS011;22480;50.546;12.292;2024-03-23T03:10:56;20.15;;;12.95;;
36457;SDS011;22480;50.546;12.292;2024-03-23T03:13:22;16.30;;;11.73;;
36457;SDS011;22480;50.546;12.292;2024-03-23T03:15:47;19.95;;;12.27;;
36457;SDS011;22480;50.546;12.292;2024-03-23T03:18:13;17.63;;;12.98;;
36457;SDS011;22480;50.546;12.292;2024-03-23T03:20:39;21.13;;;13.68;;
36457;SDS011;22480;50.546;12.292;2024-03-23T03:23:05;17.70;;;13.55;;
36457;SDS011;22480;50.546;12.292;2024-03-23T03:25:34;19.02;;;13.90;;
36457;SDS011;22480;50.546;12.292;2024-03-23T03:28:00;17.38;;;13.07;;
36457;SDS011;22480;50.546;12.292;2024-03-23T03:30:27;22.52;;;13.88;;
36457;SDS011;22480;50.546;12.292;2024-03-23T03:32:53;21.55;;;14.13;;
36457;SDS011;22480;50.546;12.292;2024-03-23T03:35:19;20.67;;;12.95;;
36457;SDS011;22480;50.546;12.292;2024-03-23T03:37:45;16.67;;;12.23;;
36457;SDS011;22480;50.546;12.292;2024-03-23T03:40:11;24.63;;;12.90;;
36457;SDS011;22480;50.546;12.292;2024-03-23T03:42:37;19.35;;;13.40;;
36457;SDS011;22480;50.546;12.292;2024-03-23T03:45:03;20.40;;;13.52;;
36457;SDS011;22480;50.546;12.292;2024-03-23T03:47:29;19.48;;;14.05;;
36457;SDS011;22480;50.546;12.292;2024-03-23T03:49:55;23.00;;;14.30;;
36457;SDS011;22480;50.546;12.292;2024-03-23T03:52:21;21.75;;;12.95;;
36457;SDS011;22480;50.546;12.292;2024-03-23T03:54:47;21.35;;;12.70;;
36457;SDS011;22480;50.546;12.292;2024-03-23T03:57:12;19.45;;;14.00;;
36457;SDS011;22480;50.546;12.292;2024-03-23T03:59:38;18.80;;;13.30;;
36457;SDS011;22480;50.546;12.292;2024-03-23T04:02:04;22.10;;;14.52;;
36457;SDS011;22480;50.546;12.292;2024-03-23T04:04:30;20.55;;;13.65;;
36457;SDS011;22480;50.546;12.292;2024-03-23T04:07:02;18.15;;;13.27;;
36457;SDS011;22480;50.546;12.292;2024-03-23T04:09:28;22.80;;;14.73;;
36457;SDS011;22480;50.546;12.292;2024-03-23T04:11:55;23.90;;;13.70;;
36457;SDS011;22480;50.546;12.292;2024-03-23T04:14:21;21.38;;;14.75;;
36457;SDS011;22480;50.546;12.292;2024-03-23T04:16:46;18.67;;;13.65;;
36457;SDS011;22480;50.546;12.292;2024-03-23T04:19:12;18.77;;;13.63;;
36457;SDS011;22480;50.546;12.292;2024-03-23T04:21:38;19.60;;;13.55;;
36457;SDS011;22480;50.546;12.292;2024-03-23T04:24:04;24.17;;;14.70;;
36457;SDS011;22480;50.546;12.292;2024-03-23T04:26:30;22.38;;;14.68;;
36457;SDS011;22480;50.546;12.292;2024-03-23T04:29:05;25.30;;;14.50;;
36457;SDS011;22480;50.546;12.292;2024-03-23T04:31:30;16.35;;;12.98;;
36457;SDS011;22480;50.546;12.292;2024-03-23T04:33:58;18.98;;;13.40;;
36457;SDS011;22480;50.546;12.292;2024-03-23T04:36:24;15.90;;;11.85;;
36457;SDS011;22480;50.546;12.292;2024-03-23T04:38:49;17.52;;;12.23;;
36457;SDS011;22480;50.546;12.292;2024-03-23T04:41:17;17.38;;;12.85;;
36457;SDS011;22480;50.546;12.292;2024-03-23T04:43:43;15.90;;;11.32;;
36457;SDS011;22480;50.546;12.292;2024-03-23T04:46:09;15.45;;;11.15;;
36457;SDS011;22480;50.546;12.292;2024-03-23T04:48:34;15.38;;;11.98;;
36457;SDS011;22480;50.546;12.292;2024-03-23T04:51:01;15.40;;;10.48;;
36457;SDS011;22480;50.546;12.292;2024-03-23T04:53:27;12.50;;;10.70;;
36457;SDS011;22480;50.546;12.292;2024-03-23T04:55:55;13.55;;;9.48;;
36457;SDS011;22480;50.546;12.292;2024-03-23T04:58:22;13.90;;;10.60;;
36457;SDS011;22480;50.546;12.292;2024-03-23T05:00:52;14.90;;;10.38;;
36457;SDS011;22480;50.546;12.292;2024-03-23T05:03:19;13.15;;;9.93;;
36457;SDS011;22480;50.546;12.292;2024-03-23T05:05:46;14.43;;;9.70;;
36457;SDS011;22480;50.546;12.292;2024-03-23T05:08:15;12.35;;;9.27;;
36457;SDS011;22480;50.546;12.292;2024-03-23T05:10:44;14.25;;;9.45;;
36457;SDS011;22480;50.546;12.292;2024-03-23T05:13:10;14.43;;;9.90;;
36457;SDS011;22480;50.546;12.292;2024-03-23T05:15:36;10.95;;;9.07;;
36457;SDS011;22480;50.546;12.292;2024-03-23T05:18:01;11.98;;;8.98;;
36457;SDS011;22480;50.546;12.292;2024-03-23T05:20:27;10.43;;;8.98;;
36457;SDS011;22480;50.546;12.292;2024-03-23T05:22:54;14.65;;;8.68;;
36457;SDS011;22480;50.546;12.292;2024-03-23T05:25:20;12.57;;;9.55;;
36457;SDS011;22480;50.546;12.292;2024-03-23T05:27:46;13.50;;;9.13;;
36457;SDS011;22480;50.546;12.292;2024-03-23T05:30:11;11.85;;;8.13;;
36457;SDS011;22480;50.546;12.292;2024-03-23T05:32:37;13.52;;;9.00;;
36457;SDS011;22480;50.546;12.292;2024-03-23T05:35:06;12.68;;;8.45;;
36457;SDS011;22480;50.546;12.292;2024-03-23T05:37:32;13.25;;;8.88;;
36457;SDS011;22480;50.546;12.292;2024-03-23T05:39:59;12.75;;;8.68;;
36457;SDS011;22480;50.546;12.292;2024-03-23T05:42:25;14.02;;;9.55;;
36457;SDS011;22480;50.546;12.292;2024-03-23T05:44:51;13.75;;;10.27;;
36457;SDS011;22480;50.546;12.292;2024-03-23T05:47:17;15.82;;;10.00;;
36457;SDS011;22480;50.546;12.292;2024-03-23T05:49:43;16.45;;;10.82;;
36457;SDS011;22480;50.546;12.292;2024-03-23T05:52:09;16.88;;;12.27;;
36457;SDS011;22480;50.546;12.292;2024-03-23T05:54:35;14.45;;;11.40;;
36457;SDS011;22480;50.546;12.292;2024-03-23T05:57:01;15.63;;;11.95;;
36457;SDS011;22480;50.546;12.292;2024-03-23T05:59:27;16.10;;;11.73;;
36457;SDS011;22480;50.546;12.292;2024-03-23T06:01:53;16.27;;;11.88;;
36457;SDS011;22480;50.546;12.292;2024-03-23T06:04:19;19.00;;;12.38;;
36457;SDS011;22480;50.546;12.292;2024-03-23T06:06:45;14.07;;;11.43;;
36457;SDS011;22480;50.546;12.292;2024-03-23T06:09:11;15.63;;;10.98;;
36457;SDS011;22480;50.546;12.292;2024-03-23T06:11:36;17.17;;;11.43;;
36457;SDS011;22480;50.546;12.292;2024-03-23T06:14:02;13.63;;;10.98;;
36457;SDS011;22480;50.546;12.292;2024-03-23T06:16:28;13.80;;;10.65;;
36457;SDS011;22480;50.546;12.292;2024-03-23T06:18:53;16.13;;;10.95;;
36457;SDS011;22480;50.546;12.292;2024-03-23T06:21:20;12.80;;;9.68;;
36457;SDS011;22480;50.546;12.292;2024-03-23T06:23:46;11.57;;;9.52;;
36457;SDS011;22480;50.546;12.292;2024-03-23T06:26:19;11.35;;;9.88;;
36457;SDS011;22480;50.546;12.292;2024-03-23T06:28:45;14.40;;;9.95;;
36457;SDS011;22480;50.546;12.292;2024-03-23T06:31:12;11.98;;;10.32;;
36457;SDS011;22480;50.546;12.292;2024-03-23T06:33:38;13.60;;;8.65;;
36457;SDS011;22480;50.546;12.292;2024-03-23T06:36:04;12.50;;;8.50;;
36457;SDS011;22480;50.546;12.292;2024-03-23T06:38:31;10.82;;;8.05;;
36457;SDS011;22480;50.546;12.292;2024-03-23T06:40:57;13.00;;;8.15;;
36457;SDS011;22480;50.546;12.292;2024-03-23T06:43:23;11.95;;;8.52;;
36457;SDS011;22480;50.546;12.292;2024-03-23T06:45:54;10.85;;;8.18;;
36457;SDS011;22480;50.546;12.292;2024-03-23T06:48:21;10.38;;;7.82;;
36457;SDS011;22480;50.546;12.292;2024-03-23T06:50:47;12.20;;;8.10;;
36457;SDS011;22480;50.546;12.292;2024-03-23T06:53:13;11.52;;;8.38;;
36457;SDS011;22480;50.546;12.292;2024-03-23T06:55:39;11.60;;;7.50;;
36457;SDS011;22480;50.546;12.292;2024-03-23T06:58:05;8.77;;;6.82;;
36457;SDS011;22480;50.546;12.292;2024-03-23T07:00:31;11.27;;;6.85;;
36457;SDS011;22480;50.546;12.292;2024-03-23T07:02:57;9.30;;;6.80;;
36457;SDS011;22480;50.546;12.292;2024-03-23T07:05:23;10.18;;;6.97;;
36457;SDS011;22480;50.546;12.292;2024-03-23T07:07:49;10.43;;;7.57;;
36457;SDS011;22480;50.546;12.292;2024-03-23T07:10:15;10.73;;;7.43;;
36457;SDS011;22480;50.546;12.292;2024-03-23T07:12:40;9.63;;;7.30;;
36457;SDS011;22480;50.546;12.292;2024-03-23T07:15:06;8.50;;;6.47;;
36457;SDS011;22480;50.546;12.292;2024-03-23T07:17:33;12.07;;;7.22;;
36457;SDS011;22480;50.546;12.292;2024-03-23T07:20:00;9.13;;;6.82;;
36457;SDS011;22480;50.546;12.292;2024-03-23T07:22:29;10.60;;;7.85;;
36457;SDS011;22480;50.546;12.292;2024-03-23T07:24:55;9.10;;;7.00;;
36457;SDS011;22480;50.546;12.292;2024-03-23T07:27:21;9.07;;;7.13;;
36457;SDS011;22480;50.546;12.292;2024-03-23T07:29:49;9.55;;;6.57;;
36457;SDS011;22480;50.546;12.292;2024-03-23T07:32:14;7.82;;;6.65;;
36457;SDS011;22480;50.546;12.292;2024-03-23T07:34:40;10.05;;;7.07;;
36457;SDS011;22480;50.546;12.292;2024-03-23T07:37:08;8.23;;;6.32;;
36457;SDS011;22480;50.546;12.292;2024-03-23T07:39:34;7.85;;;6.72;;
36457;SDS011;22480;50.546;12.292;2024-03-23T07:41:59;10.82;;;7.55;;
36457;SDS011;22480;50.546;12.292;2024-03-23T07:44:25;12.07;;;6.97;;
36457;SDS011;22480;50.546;12.292;2024-03-23T07:46:51;10.15;;;7.88;;
36457;SDS011;22480;50.546;12.292;2024-03-23T07:49:16;9.23;;;7.45;;
36457;SDS011;22480;50.546;12.292;2024-03-23T07:51:43;10.32;;;8.27;;
36457;SDS011;22480;50.546;12.292;2024-03-23T07:54:09;12.63;;;8.73;;
36457;SDS011;22480;50.546;12.292;2024-03-23T07:56:35;11.38;;;8.68;;
36457;SDS011;22480;50.546;12.292;2024-03-23T07:59:01;12.50;;;9.07;;
36457;SDS011;22480;50.546;12.292;2024-03-23T08:01:28;13.00;;;9.55;;
36457;SDS011;22480;50.546;12.292;2024-03-23T08:03:54;11.73;;;8.25;;
36457;SDS011;22480;50.546;12.292;2024-03-23T08:06:20;14.60;;;9.68;;
36457;SDS011;22480;50.546;12.292;2024-03-23T08:08:48;13.18;;;9.95;;
36457;SDS011;22480;50.546;12.292;2024-03-23T08:11:15;13.50;;;7.88;;
36457;SDS011;22480;50.546;12.292;2024-03-23T08:13:42;13.10;;;9.13;;
36457;SDS011;22480;50.546;12.292;2024-03-23T08:16:10;12.15;;;9.85;;
36457;SDS011;22480;50.546;12.292;2024-03-23T08:18:36;14.90;;;10.68;;
36457;SDS011;22480;50.546;12.292;2024-03-23T08:21:03;17.52;;;12.43;;
36457;SDS011;22480;50.546;12.292;2024-03-23T08:23:30;15.85;;;11.80;;
36457;SDS011;22480;50.546;12.292;2024-03-23T08:26:01;17.02;;;12.50;;
36457;SDS011;22480;50.546;12.292;2024-03-23T08:28:29;17.83;;;12.63;;
36457;SDS011;22480;50.546;12.292;2024-03-23T08:30:55;20.52;;;13.93;;
36457;SDS011;22480;50.546;12.292;2024-03-23T08:33:21;20.27;;;12.95;;
36457;SDS011;22480;50.546;12.292;2024-03-23T08:38:19;16.50;;;12.20;;
36457;SDS011;22480;50.546;12.292;2024-03-23T08:40:45;19.40;;;11.73;;
36457;SDS011;22480;50.546;12.292;2024-03-23T08:43:11;16.25;;;12.52;;
36457;SDS011;22480;50.546;12.292;2024-03-23T08:45:36;10.88;;;7.95;;
36457;SDS011;22480;50.546;12.292;2024-03-23T08:48:02;11.57;;;8.57;;
36457;SDS011;22480;50.546;12.292;2024-03-23T08:50:28;12.30;;;8.32;;
36457;SDS011;22480;50.546;12.292;2024-03-23T08:52:53;14.32;;;9.63;;
36457;SDS011;22480;50.546;12.292;2024-03-23T08:55:19;13.88;;;8.73;;
36457;SDS011;22480;50.546;12.292;2024-03-23T08:57:45;14.30;;;9.35;;
36457;SDS011;22480;50.546;12.292;2024-03-23T09:00:11;15.48;;;9.68;;
36457;SDS011;22480;50.546;12.292;2024-03-23T09:02:37;13.68;;;9.50;;
36457;SDS011;22480;50.546;12.292;2024-03-23T09:05:02;7.43;;;5.25;;
36457;SDS011;22480;50.546;12.292;2024-03-23T09:07:32;4.22;;;3.15;;
36457;SDS011;22480;50.546;12.292;2024-03-23T09:09:58;4.13;;;2.70;;
36457;SDS011;22480;50.546;12.292;2024-03-23T09:12:23;3.72;;;2.17;;
36457;SDS011;22480;50.546;12.292;2024-03-23T09:14:50;2.95;;;1.92;;
36457;SDS011;22480;50.546;12.292;2024-03-23T09:17:15;1.40;;;1.27;;
36457;SDS011;22480;50.546;12.292;2024-03-23T09:19:41;2.67;;;1.42;;
36457;SDS011;22480;50.546;12.292;2024-03-23T09:22:07;3.28;;;1.23;;
36457;SDS011;22480;50.546;12.292;2024-03-23T09:24:32;1.50;;;1.00;;
36457;SDS011;22480;50.546;12.292;2024-03-23T09:26:58;0.85;;;0.85;;
36457;SDS011;22480;50.546;12.292;2024-03-23T09:29:24;1.05;;;0.93;;
36457;SDS011;22480;50.546;12.292;2024-03-23T09:31:49;1.33;;;0.90;;
36457;SDS011;22480;50.546;12.292;2024-03-23T09:34:15;1.02;;;0.93;;
36457;SDS011;22480;50.546;12.292;2024-03-23T09:36:41;1.52;;;0.82;;
36457;SDS011;22480;50.546;12.292;2024-03-23T09:39:06;2.20;;;0.80;;
36457;SDS011;22480;50.546;12.292;2024-03-23T09:41:34;3.30;;;0.70;;
36457;SDS011;22480;50.546;12.292;2024-03-23T09:44:01;0.82;;;0.80;;
36457;SDS011;22480;50.546;12.292;2024-03-23T09:46:27;0.65;;;0.57;;
36457;SDS011;22480;50.546;12.292;2024-03-23T09:48:59;0.55;;;0.50;;
36457;SDS011;22480;50.546;12.292;2024-03-23T09:51:26;0.63;;;0.60;;
36457;SDS011;22480;50.546;12.292;2024-03-23T09:53:52;0.35;;;0.35;;
36457;SDS011;22480;50.546;12.292;2024-03-23T09:56:18;0.30;;;0.30;;
36457;SDS011;22480;50.546;12.292;2024-03-23T09:58:44;0.45;;;0.45;;
36457;SDS011;22480;50.546;12.292;2024-03-23T10:01:09;0.35;;;0.35;;
36457;SDS011;22480;50.546;12.292;2024-03-23T10:03:45;0.60;;;0.60;;
36457;SDS011;22480;50.546;12.292;2024-03-23T10:06:11;0.50;;;0.50;;
36457;SDS011;22480;50.546;12.292;2024-03-23T10:08:36;0.40;;;0.40;;
36457;SDS011;22480;50.546;12.292;2024-03-23T10:11:12;0.30;;;0.30;;
36457;SDS011;22480;50.546;12.292;2024-03-23T10:13:41;0.47;;;0.47;;
36457;SDS011;22480;50.546;12.292;2024-03-23T10:16:08;0.73;;;0.60;;
36457;SDS011;22480;50.546;12.292;2024-03-23T10:18:38;0.70;;;0.40;;
36457;SDS011;22480;50.546;12.292;2024-03-23T10:21:09;0.40;;;0.40;;
36457;SDS011;22480;50.546;12.292;2024-03-23T10:23:36;0.30;;;0.30;;
36457;SDS011;22480;50.546;12.292;2024-03-23T10:26:21;0.40;;;0.40;;
36457;SDS011;22480;50.546;12.292;2024-03-23T10:31:24;0.40;;;0.30;;
36457;SDS011;22480;50.546;12.292;2024-03-23T10:33:50;0.30;;;0.30;;
36457;SDS011;22480;50.546;12.292;2024-03-23T10:36:19;0.40;;;0.20;;
36457;SDS011;22480;50.546;12.292;2024-03-23T10:38:45;0.30;;;0.30;;
36457;SDS011;22480;50.546;12.292;2024-03-23T10:41:12;0.30;;;0.30;;
36457;SDS011;22480;50.546;12.292;2024-03-23T10:43:38;0.20;;;0.20;;
36457;SDS011;22480;50.546;12.292;2024-03-23T10:46:05;0.13;;;0.13;;
36457;SDS011;22480;50.546;12.292;2024-03-23T10:48:31;0.20;;;0.20;;
36457;SDS011;22480;50.546;12.292;2024-03-23T10:50:57;0.40;;;0.40;;
36457;SDS011;22480;50.546;12.292;2024-03-23T10:53:25;0.30;;;0.30;;
36457;SDS011;22480;50.546;12.292;2024-03-23T10:55:51;0.20;;;0.20;;
36457;SDS011;22480;50.546;12.292;2024-03-23T10:58:19;0.20;;;0.20;;
36457;SDS011;22480;50.546;12.292;2024-03-23T11:00:53;1.15;;;0.70;;
36457;SDS011;22480;50.546;12.292;2024-03-23T11:03:31;0.20;;;0.20;;
36457;SDS011;22480;50.546;12.292;2024-03-23T11:06:02;0.47;;;0.30;;
36457;SDS011;22480;50.546;12.292;2024-03-23T11:08:35;0.28;;;0.28;;
36457;SDS011;22480;50.546;12.292;2024-03-23T11:11:18;0.20;;;0.20;;
36457;SDS011;22480;50.546;12.292;2024-03-23T11:13:48;0.38;;;0.38;;
36457;SDS011;22480;50.546;12.292;2024-03-23T11:16:22;0.30;;;0.20;;
36457;SDS011;22480;50.546;12.292;2024-03-23T11:22:05;19.02;;;14.38;;
36457;SDS011;22480;50.546;12.292;2024-03-23T11:24:31;0.32;;;0.32;;
36457;SDS011;22480;50.546;12.292;2024-03-23T11:26:57;0.40;;;0.40;;
36457;SDS011;22480;50.546;12.292;2024-03-23T11:29:29;0.60;;;0.40;;
36457;SDS011;22480;50.546;12.292;2024-03-23T11:31:55;0.68;;;0.43;;
36457;SDS011;22480;50.546;12.292;2024-03-23T11:34:21;0.30;;;0.30;;
36457;SDS011;22480;50.546;12.292;2024-03-23T11:36:47;0.57;;;0.45;;
36457;SDS011;22480;50.546;12.292;2024-03-23T11:39:15;0.90;;;0.40;;
36457;SDS011;22480;50.546;12.292;2024-03-23T11:41:45;1.15;;;0.55;;
36457;SDS011;22480;50.546;12.292;2024-03-23T11:46:43;1.20;;;0.50;;
36457;SDS011;22480;50.546;12.292;2024-03-23T11:49:22;1.60;;;0.68;;
36457;SDS011;22480;50.546;12.292;2024-03-23T11:51:49;3.88;;;1.10;;
36457;SDS011;22480;50.546;12.292;2024-03-23T11:54:16;4.18;;;1.17;;
36457;SDS011;22480;50.546;12.292;2024-03-23T11:56:58;2.92;;;0.90;;
36457;SDS011;22480;50.546;12.292;2024-03-23T12:09:36;2.03;;;1.33;;
36457;SDS011;22480;50.546;12.292;2024-03-23T12:12:35;3.08;;;1.30;;
36457;SDS011;22480;50.546;12.292;2024-03-23T12:15:07;2.90;;;0.95;;
36457;SDS011;22480;50.546;12.292;2024-03-23T12:17:33;3.50;;;1.10;;
36457;SDS011;22480;50.546;12.292;2024-03-23T12:20:00;3.60;;;1.30;;
36457;SDS011;22480;50.546;12.292;2024-03-23T12:22:26;3.88;;;1.30;;
36457;SDS011;22480;50.546;12.292;2024-03-23T12:24:52;3.40;;;1.40;;
36457;SDS011;22480;50.546;12.292;2024-03-23T12:27:18;3.53;;;1.65;;
36457;SDS011;22480;50.546;12.292;2024-03-23T12:29:44;12.15;;;7.20;;
36457;SDS011;22480;50.546;12.292;2024-03-23T12:32:12;3.08;;;1.33;;
36457;SDS011;22480;50.546;12.292;2024-03-23T12:34:38;5.57;;;1.85;;
36457;SDS011;22480;50.546;12.292;2024-03-23T12:37:04;5.55;;;1.60;;
36457;SDS011;22480;50.546;12.292;2024-03-23T12:39:31;4.40;;;1.70;;
36457;SDS011;22480;50.546;12.292;2024-03-23T12:41:57;3.72;;;1.63;;
36457;SDS011;22480;50.546;12.292;2024-03-23T12:44:22;4.93;;;1.48;;
36457;SDS011;22480;50.546;12.292;2024-03-23T12:46:48;3.35;;;1.45;;
36457;SDS011;22480;50.546;12.292;2024-03-23T12:49:14;6.20;;;3.25;;
36457;SDS011;22480;50.546;12.292;2024-03-23T12:51:42;11.13;;;9.65;;
36457;SDS011;22480;50.546;12.292;2024-03-23T12:54:21;4.53;;;2.13;;
36457;SDS011;22480;50.546;12.292;2024-03-23T12:56:47;6.18;;;2.85;;
36457;SDS011;22480;50.546;12.292;2024-03-23T12:59:13;6.00;;;1.98;;
36457;SDS011;22480;50.546;12.292;2024-03-23T13:01:39;5.30;;;1.95;;
36457;SDS011;22480;50.546;12.292;2024-03-23T13:04:05;4.78;;;2.25;;
36457;SDS011;22480;50.546;12.292;2024-03-23T13:06:31;6.07;;;1.80;;
36457;SDS011;22480;50.546;12.292;2024-03-23T13:08:59;6.40;;;2.25;;
36457;SDS011;22480;50.546;12.292;2024-03-23T13:11:28;6.87;;;2.70;;
36457;SDS011;22480;50.546;12.292;2024-03-23T13:13:55;6.93;;;2.60;;
36457;SDS011;22480;50.546;12.292;2024-03-23T13:16:20;5.75;;;2.80;;
36457;SDS011;22480;50.546;12.292;2024-03-23T13:18:46;6.18;;;2.60;;
36457;SDS011;22480;50.546;12.292;2024-03-23T13:21:12;7.63;;;3.33;;
36457;SDS011;22480;50.546;12.292;2024-03-23T13:23:37;8.05;;;2.83;;
36457;SDS011;22480;50.546;12.292;2024-03-23T13:26:07;6.03;;;2.22;;
36457;SDS011;22480;50.546;12.292;2024-03-23T13:28:34;7.10;;;2.03;;
36457;SDS011;22480;50.546;12.292;2024-03-23T13:31:01;5.38;;;2.40;;
36457;SDS011;22480;50.546;12.292;2024-03-23T13:33:30;6.32;;;2.38;;
36457;SDS011;22480;50.546;12.292;2024-03-23T13:35:57;7.60;;;2.25;;
36457;SDS011;22480;50.546;12.292;2024-03-23T13:38:23;4.10;;;2.40;;
36457;SDS011;22480;50.546;12.292;2024-03-23T13:40:53;3.75;;;1.88;;
36457;SDS011;22480;50.546;12.292;2024-03-23T13:43:23;3.97;;;1.92;;
36457;SDS011;22480;50.546;12.292;2024-03-23T13:45:55;4.97;;;2.47;;
36457;SDS011;22480;50.546;12.292;2024-03-23T13:48:23;6.38;;;2.35;;
36457;SDS011;22480;50.546;12.292;2024-03-23T13:50:59;4.13;;;2.05;;
36457;SDS011;22480;50.546;12.292;2024-03-23T13:53:28;2.83;;;1.33;;
36457;SDS011;22480;50.546;12.292;2024-03-23T13:55:54;6.22;;;1.60;;
36457;SDS011;22480;50.546;12.292;2024-03-23T13:58:20;6.40;;;1.95;;
36457;SDS011;22480;50.546;12.292;2024-03-23T14:00:46;3.22;;;2.13;;
36457;SDS011;22480;50.546;12.292;2024-03-23T14:03:12;4.57;;;2.33;;
36457;SDS011;22480;50.546;12.292;2024-03-23T14:05:39;1.88;;;1.00;;
36457;SDS011;22480;50.546;12.292;2024-03-23T14:08:08;1.40;;;0.88;;
36457;SDS011;22480;50.546;12.292;2024-03-23T14:10:35;5.63;;;1.65;;
36457;SDS011;22480;50.546;12.292;2024-03-23T14:13:03;1.38;;;0.93;;
36457;SDS011;22480;50.546;12.292;2024-03-23T14:15:29;1.63;;;0.57;;
36457;SDS011;22480;50.546;12.292;2024-03-23T14:17:55;1.02;;;0.52;;
36457;SDS011;22480;50.546;12.292;2024-03-23T14:20:22;2.05;;;0.70;;
36457;SDS011;22480;50.546;12.292;2024-03-23T14:22:48;2.10;;;0.57;;
36457;SDS011;22480;50.546;12.292;2024-03-23T14:25:14;5.03;;;0.95;;
36457;SDS011;22480;50.546;12.292;2024-03-23T14:27:40;2.45;;;0.80;;
36457;SDS011;22480;50.546;12.292;2024-03-23T14:30:06;1.27;;;0.70;;
36457;SDS011;22480;50.546;12.292;2024-03-23T14:32:33;1.33;;;0.80;;
36457;SDS011;22480;50.546;12.292;2024-03-23T14:35:02;1.83;;;0.90;;
36457;SDS011;22480;50.546;12.292;2024-03-23T14:37:28;1.45;;;0.80;;
36457;SDS011;22480;50.546;12.292;2024-03-23T14:39:57;1.75;;;0.80;;
36457;SDS011;22480;50.546;12.292;2024-03-23T14:42:24;1.10;;;0.50;;
36457;SDS011;22480;50.546;12.292;2024-03-23T14:44:50;2.42;;;0.75;;
36457;SDS011;22480;50.546;12.292;2024-03-23T14:47:17;2.65;;;1.10;;
36457;SDS011;22480;50.546;12.292;2024-03-23T14:49:44;7.80;;;1.10;;
36457;SDS011;22480;50.546;12.292;2024-03-23T14:52:13;5.05;;;1.15;;
36457;SDS011;22480;50.546;12.292;2024-03-23T14:54:39;1.73;;;1.35;;
36457;SDS011;22480;50.546;12.292;2024-03-23T14:57:05;5.75;;;1.25;;
36457;SDS011;22480;50.546;12.292;2024-03-23T14:59:34;1.33;;;0.68;;
36457;SDS011;22480;50.546;12.292;2024-03-23T15:02:00;3.83;;;0.80;;
36457;SDS011;22480;50.546;12.292;2024-03-23T15:04:26;1.95;;;0.70;;
36457;SDS011;22480;50.546;12.292;2024-03-23T15:06:51;3.75;;;0.93;;
36457;SDS011;22480;50.546;12.292;2024-03-23T15:09:17;2.45;;;0.80;;
36457;SDS011;22480;50.546;12.292;2024-03-23T15:11:43;13.88;;;6.00;;
36457;SDS011;22480;50.546;12.292;2024-03-23T15:14:09;2.42;;;0.90;;
36457;SDS011;22480;50.546;12.292;2024-03-23T15:16:36;3.95;;;1.40;;
36457;SDS011;22480;50.546;12.292;2024-03-23T15:19:02;4.22;;;1.23;;
36457;SDS011;22480;50.546;12.292;2024-03-23T15:21:27;3.80;;;1.30;;
36457;SDS011;22480;50.546;12.292;2024-03-23T15:23:53;4.25;;;1.50;;
36457;SDS011;22480;50.546;12.292;2024-03-23T15:26:19;4.50;;;1.60;;
36457;SDS011;22480;50.546;12.292;2024-03-23T15:28:48;2.83;;;1.70;;
36457;SDS011;22480;50.546;12.292;2024-03-23T15:31:23;2.13;;;0.80;;
36457;SDS011;22480;50.546;12.292;2024-03-23T15:33:50;1.95;;;1.13;;